SIK63A LIPY-LIRI
Flight info
| Callsign | SIK63A |
|---|---|
| Flight time | 0h 43m |
| Altitude | 33000 |
| Route | GERBU M736 UTENO DCT PES DCT MOLUX DCT SOR |
| Aircraft | B737/M-SDE2E3FGHIRWXY/LB1 |
Departure
| Time | 2026-04-21 14:03 |
|---|---|
| Airport | Marche Airport (LIPY) |
Arrival
| Time | 2026-04-21 14:46 |
|---|---|
| Airport | Salerno Costa d'Amalfi Airport (LIRI) |
| Time | Latitude | Longitude | Altitude | Speed | Heading |
|---|---|---|---|---|---|
| 2026-04-21 13:37 | 43.60788 | 13.35501 | 53 ft | 0 kts | 159° |
| 2026-04-21 13:55 | 43.60802 | 13.35493 | 48 ft | 4 kts | 146° |
| 2026-04-21 13:55 | 43.60819 | 13.35468 | 51 ft | 4 kts | 103° |
| 2026-04-21 13:55 | 43.60817 | 13.35434 | 52 ft | 4 kts | 60° |
| 2026-04-21 13:55 | 43.60809 | 13.35418 | 50 ft | 0 kts | 45° |
| 2026-04-21 13:58 | 43.60819 | 13.35432 | 52 ft | 5 kts | 45° |
| 2026-04-21 13:58 | 43.60847 | 13.35471 | 53 ft | 6 kts | 45° |
| 2026-04-21 13:58 | 43.60889 | 13.35529 | 47 ft | 11 kts | 45° |
| 2026-04-21 13:59 | 43.60967 | 13.35567 | 49 ft | 13 kts | 356° |
| 2026-04-21 13:59 | 43.61058 | 13.35560 | 53 ft | 14 kts | 356° |
| 2026-04-21 13:59 | 43.61163 | 13.35594 | 48 ft | 20 kts | 35° |
| 2026-04-21 13:59 | 43.61290 | 13.35763 | 49 ft | 30 kts | 44° |
| 2026-04-21 14:00 | 43.61452 | 13.35985 | 47 ft | 35 kts | 45° |
| 2026-04-21 14:00 | 43.61636 | 13.36236 | 47 ft | 39 kts | 45° |
| 2026-04-21 14:00 | 43.61838 | 13.36512 | 44 ft | 43 kts | 45° |
| 2026-04-21 14:00 | 43.62058 | 13.36813 | 40 ft | 46 kts | 45° |
| 2026-04-21 14:01 | 43.62275 | 13.37109 | 40 ft | 41 kts | 45° |
| 2026-04-21 14:01 | 43.62452 | 13.37352 | 39 ft | 26 kts | 45° |
| 2026-04-21 14:01 | 43.62520 | 13.37494 | 36 ft | 9 kts | 85° |
| 2026-04-21 14:01 | 43.62555 | 13.37500 | 36 ft | 6 kts | 274° |
| 2026-04-21 14:02 | 43.62542 | 13.37475 | 36 ft | 0 kts | 226° |
| 2026-04-21 14:02 | 43.62483 | 13.37392 | 38 ft | 44 kts | 224° |
| 2026-04-21 14:03 | 43.61348 | 13.35882 | 203 ft | 161 kts | 224° |
| 2026-04-21 14:03 | 43.60525 | 13.34791 | 878 ft | 171 kts | 223° |
| 2026-04-21 14:03 | 43.59627 | 13.33599 | 1490 ft | 188 kts | 224° |
| 2026-04-21 14:03 | 43.58731 | 13.32338 | 1982 ft | 178 kts | 226° |
| 2026-04-21 14:04 | 43.57834 | 13.31017 | 2069 ft | 208 kts | 225° |
| 2026-04-21 14:04 | 43.56763 | 13.29479 | 2495 ft | 230 kts | 225° |
| 2026-04-21 14:04 | 43.55665 | 13.27922 | 3391 ft | 228 kts | 225° |
| 2026-04-21 14:04 | 43.54561 | 13.26371 | 4323 ft | 226 kts | 225° |
| 2026-04-21 14:05 | 43.53246 | 13.25180 | 5159 ft | 230 kts | 199° |
| 2026-04-21 14:05 | 43.51653 | 13.24832 | 5970 ft | 236 kts | 182° |
| 2026-04-21 14:05 | 43.49937 | 13.24946 | 6409 ft | 262 kts | 162° |
| 2026-04-21 14:05 | 43.48410 | 13.26350 | 7152 ft | 271 kts | 135° |
| 2026-04-21 14:06 | 43.47097 | 13.28281 | 7993 ft | 279 kts | 134° |
| 2026-04-21 14:06 | 43.45763 | 13.30247 | 8939 ft | 284 kts | 135° |
| 2026-04-21 14:06 | 43.44378 | 13.32220 | 9835 ft | 290 kts | 137° |
| 2026-04-21 14:06 | 43.42925 | 13.34225 | 10606 ft | 299 kts | 138° |
| 2026-04-21 14:07 | 43.41426 | 13.36243 | 11467 ft | 304 kts | 139° |
| 2026-04-21 14:07 | 43.39892 | 13.38279 | 12345 ft | 309 kts | 139° |
| 2026-04-21 14:07 | 43.38328 | 13.40338 | 13207 ft | 315 kts | 139° |
| 2026-04-21 14:07 | 43.36756 | 13.42421 | 14037 ft | 322 kts | 136° |
| 2026-04-21 14:08 | 43.35547 | 13.45052 | 14806 ft | 334 kts | 111° |
| 2026-04-21 14:08 | 43.35087 | 13.48286 | 15125 ft | 359 kts | 93° |
| 2026-04-21 14:08 | 43.34924 | 13.51822 | 15533 ft | 380 kts | 92° |
| 2026-04-21 14:08 | 43.34771 | 13.55492 | 16302 ft | 388 kts | 92° |
| 2026-04-21 14:09 | 43.34306 | 13.59165 | 17159 ft | 395 kts | 111° |
| 2026-04-21 14:09 | 43.32885 | 13.62376 | 18023 ft | 396 kts | 135° |
| 2026-04-21 14:09 | 43.30772 | 13.64762 | 18791 ft | 393 kts | 155° |
| 2026-04-21 14:09 | 43.28308 | 13.66362 | 19569 ft | 393 kts | 161° |
| 2026-04-21 14:10 | 43.25788 | 13.67857 | 20341 ft | 397 kts | 161° |
| 2026-04-21 14:10 | 43.23234 | 13.69372 | 21118 ft | 401 kts | 161° |
| 2026-04-21 14:10 | 43.20678 | 13.70934 | 21860 ft | 406 kts | 160° |
| 2026-04-21 14:10 | 43.18084 | 13.72544 | 22542 ft | 412 kts | 160° |
| 2026-04-21 14:11 | 43.15456 | 13.74182 | 23170 ft | 418 kts | 160° |
| 2026-04-21 14:11 | 43.12792 | 13.75846 | 23818 ft | 423 kts | 160° |
| 2026-04-21 14:11 | 43.10101 | 13.77525 | 24416 ft | 427 kts | 160° |
| 2026-04-21 14:11 | 43.07393 | 13.79212 | 25013 ft | 431 kts | 160° |
| 2026-04-21 14:12 | 43.04635 | 13.80926 | 25605 ft | 436 kts | 161° |
| 2026-04-21 14:12 | 43.01854 | 13.82652 | 26151 ft | 441 kts | 161° |
| 2026-04-21 14:12 | 42.99048 | 13.84390 | 26676 ft | 446 kts | 161° |
| 2026-04-21 14:12 | 42.96207 | 13.86148 | 27142 ft | 452 kts | 161° |
| 2026-04-21 14:13 | 42.93361 | 13.87906 | 27595 ft | 457 kts | 161° |
| 2026-04-21 14:13 | 42.90455 | 13.89701 | 28084 ft | 461 kts | 161° |
| 2026-04-21 14:13 | 42.87517 | 13.91515 | 28635 ft | 464 kts | 161° |
| 2026-04-21 14:13 | 42.84568 | 13.93333 | 29179 ft | 467 kts | 161° |
| 2026-04-21 14:14 | 42.81600 | 13.95163 | 29827 ft | 467 kts | 161° |
| 2026-04-21 14:14 | 42.78652 | 13.96980 | 30495 ft | 465 kts | 161° |
| 2026-04-21 14:14 | 42.75712 | 13.98790 | 31119 ft | 462 kts | 161° |
| 2026-04-21 14:14 | 42.72799 | 14.00581 | 31808 ft | 458 kts | 161° |
| 2026-04-21 14:15 | 42.69903 | 14.02358 | 32416 ft | 455 kts | 161° |
| 2026-04-21 14:15 | 42.67013 | 14.04127 | 32910 ft | 456 kts | 161° |
| 2026-04-21 14:15 | 42.64100 | 14.05905 | 32943 ft | 461 kts | 161° |
| 2026-04-21 14:16 | 42.58252 | 14.09477 | 32964 ft | 458 kts | 161° |
| 2026-04-21 14:16 | 42.52528 | 14.12971 | 32936 ft | 452 kts | 161° |
| 2026-04-21 14:17 | 42.46780 | 14.16467 | 32951 ft | 453 kts | 161° |
| 2026-04-21 14:17 | 42.41016 | 14.19918 | 32936 ft | 452 kts | 163° |
| 2026-04-21 14:18 | 42.35214 | 14.23169 | 32926 ft | 451 kts | 163° |
| 2026-04-21 14:18 | 42.29407 | 14.26380 | 32940 ft | 450 kts | 163° |
| 2026-04-21 14:19 | 42.23609 | 14.29602 | 32946 ft | 450 kts | 163° |
| 2026-04-21 14:19 | 42.17822 | 14.32828 | 32960 ft | 451 kts | 163° |
| 2026-04-21 14:20 | 42.12021 | 14.36060 | 32956 ft | 451 kts | 163° |
| 2026-04-21 14:20 | 42.06220 | 14.39286 | 32949 ft | 451 kts | 163° |
| 2026-04-21 14:21 | 42.00410 | 14.42509 | 32959 ft | 451 kts | 163° |
| 2026-04-21 14:21 | 41.94641 | 14.45704 | 32946 ft | 451 kts | 163° |
| 2026-04-21 14:22 | 41.88841 | 14.48910 | 32938 ft | 450 kts | 163° |
| 2026-04-21 14:22 | 41.83053 | 14.52102 | 32942 ft | 450 kts | 163° |
| 2026-04-21 14:23 | 41.77265 | 14.55288 | 32946 ft | 449 kts | 163° |
| 2026-04-21 14:23 | 41.71490 | 14.58461 | 32942 ft | 449 kts | 163° |
| 2026-04-21 14:24 | 41.65700 | 14.61635 | 32901 ft | 450 kts | 163° |
| 2026-04-21 14:24 | 41.59881 | 14.64817 | 32374 ft | 455 kts | 163° |
| 2026-04-21 14:24 | 41.56954 | 14.66417 | 31823 ft | 453 kts | 163° |
| 2026-04-21 14:25 | 41.54090 | 14.67983 | 31405 ft | 448 kts | 163° |
| 2026-04-21 14:25 | 41.51218 | 14.69552 | 30917 ft | 445 kts | 163° |
| 2026-04-21 14:25 | 41.48367 | 14.71108 | 30488 ft | 441 kts | 163° |
| 2026-04-21 14:25 | 41.45537 | 14.72649 | 30029 ft | 438 kts | 163° |
| 2026-04-21 14:26 | 41.42718 | 14.74181 | 29510 ft | 435 kts | 163° |
| 2026-04-21 14:26 | 41.39929 | 14.75696 | 29039 ft | 431 kts | 163° |
| 2026-04-21 14:26 | 41.37160 | 14.77199 | 28553 ft | 428 kts | 163° |
| 2026-04-21 14:26 | 41.34413 | 14.78679 | 28116 ft | 423 kts | 166° |
| 2026-04-21 14:27 | 41.31596 | 14.79491 | 27621 ft | 406 kts | 185° |
| 2026-04-21 14:27 | 41.28847 | 14.79182 | 27182 ft | 390 kts | 200° |
| 2026-04-21 14:27 | 41.27155 | 14.78489 | 26847 ft | 380 kts | 211° |
| 2026-04-21 14:27 | 41.24797 | 14.76975 | 26414 ft | 374 kts | 214° |
| 2026-04-21 14:28 | 41.22479 | 14.75418 | 25930 ft | 373 kts | 214° |
| 2026-04-21 14:28 | 41.20169 | 14.73860 | 25492 ft | 373 kts | 214° |
| 2026-04-21 14:28 | 41.17849 | 14.72301 | 25038 ft | 375 kts | 214° |
| 2026-04-21 14:28 | 41.15510 | 14.70743 | 24589 ft | 376 kts | 214° |
| 2026-04-21 14:29 | 41.13160 | 14.69188 | 24126 ft | 378 kts | 214° |
| 2026-04-21 14:29 | 41.10794 | 14.67630 | 23625 ft | 379 kts | 213° |
| 2026-04-21 14:29 | 41.08450 | 14.66097 | 23107 ft | 373 kts | 213° |
| 2026-04-21 14:29 | 41.06146 | 14.64595 | 22588 ft | 365 kts | 213° |
| 2026-04-21 14:30 | 41.03884 | 14.63120 | 22116 ft | 361 kts | 213° |
| 2026-04-21 14:30 | 41.01634 | 14.61650 | 21671 ft | 360 kts | 213° |
| 2026-04-21 14:30 | 40.99382 | 14.60179 | 21220 ft | 361 kts | 213° |
| 2026-04-21 14:30 | 40.97130 | 14.58709 | 20739 ft | 361 kts | 213° |
| 2026-04-21 14:31 | 40.94914 | 14.57263 | 20292 ft | 360 kts | 213° |
| 2026-04-21 14:31 | 40.92637 | 14.55780 | 19830 ft | 360 kts | 212° |
| 2026-04-21 14:31 | 40.90398 | 14.54325 | 19352 ft | 357 kts | 212° |
| 2026-04-21 14:31 | 40.88180 | 14.52885 | 18885 ft | 352 kts | 212° |
| 2026-04-21 14:32 | 40.86048 | 14.51506 | 18427 ft | 340 kts | 212° |
| 2026-04-21 14:32 | 40.83959 | 14.50156 | 17932 ft | 329 kts | 212° |
| 2026-04-21 14:32 | 40.81932 | 14.48843 | 17478 ft | 322 kts | 212° |
| 2026-04-21 14:32 | 40.79926 | 14.47540 | 17047 ft | 320 kts | 212° |
| 2026-04-21 14:33 | 40.77939 | 14.46250 | 16623 ft | 317 kts | 212° |
| 2026-04-21 14:33 | 40.75964 | 14.44969 | 16203 ft | 315 kts | 212° |
| 2026-04-21 14:33 | 40.74002 | 14.43699 | 15781 ft | 313 kts | 212° |
| 2026-04-21 14:33 | 40.72053 | 14.42437 | 15359 ft | 311 kts | 212° |
| 2026-04-21 14:34 | 40.70117 | 14.41186 | 14935 ft | 309 kts | 212° |
| 2026-04-21 14:34 | 40.68190 | 14.39941 | 14516 ft | 308 kts | 211° |
| 2026-04-21 14:34 | 40.66271 | 14.38702 | 14100 ft | 306 kts | 211° |
| 2026-04-21 14:34 | 40.64357 | 14.37467 | 13658 ft | 305 kts | 211° |
| 2026-04-21 14:35 | 40.62452 | 14.36239 | 13190 ft | 304 kts | 211° |
| 2026-04-21 14:35 | 40.60556 | 14.35019 | 12742 ft | 302 kts | 211° |
| 2026-04-21 14:35 | 40.58662 | 14.33810 | 12299 ft | 302 kts | 209° |
| 2026-04-21 14:35 | 40.56622 | 14.33046 | 11854 ft | 309 kts | 193° |
| 2026-04-21 14:36 | 40.54492 | 14.32678 | 11398 ft | 308 kts | 192° |
| 2026-04-21 14:36 | 40.52380 | 14.32295 | 10954 ft | 303 kts | 193° |
| 2026-04-21 14:36 | 40.50348 | 14.31903 | 10530 ft | 295 kts | 193° |
| 2026-04-21 14:36 | 40.48349 | 14.31505 | 10193 ft | 285 kts | 194° |
| 2026-04-21 14:37 | 40.46414 | 14.31227 | 10064 ft | 281 kts | 181° |
| 2026-04-21 14:37 | 40.44519 | 14.31979 | 9912 ft | 293 kts | 153° |
| 2026-04-21 14:37 | 40.42855 | 14.33621 | 9556 ft | 304 kts | 141° |
| 2026-04-21 14:37 | 40.41260 | 14.35456 | 9159 ft | 304 kts | 141° |
| 2026-04-21 14:38 | 40.39671 | 14.37277 | 8781 ft | 302 kts | 141° |
| 2026-04-21 14:38 | 40.38082 | 14.39062 | 8425 ft | 299 kts | 142° |
| 2026-04-21 14:38 | 40.36507 | 14.40813 | 8120 ft | 295 kts | 142° |
| 2026-04-21 14:38 | 40.35115 | 14.42767 | 7739 ft | 295 kts | 120° |
| 2026-04-21 14:39 | 40.34518 | 14.45297 | 7428 ft | 291 kts | 92° |
| 2026-04-21 14:39 | 40.34809 | 14.47876 | 7083 ft | 285 kts | 66° |
| 2026-04-21 14:39 | 40.35806 | 14.50074 | 6743 ft | 278 kts | 47° |
| 2026-04-21 14:39 | 40.37050 | 14.52004 | 6405 ft | 277 kts | 46° |
| 2026-04-21 14:40 | 40.38303 | 14.53910 | 6042 ft | 275 kts | 46° |
| 2026-04-21 14:40 | 40.39549 | 14.55801 | 5728 ft | 273 kts | 46° |
| 2026-04-21 14:40 | 40.40771 | 14.57682 | 5416 ft | 269 kts | 47° |
| 2026-04-21 14:40 | 40.41961 | 14.59525 | 5145 ft | 266 kts | 47° |
| 2026-04-21 14:41 | 40.43169 | 14.61359 | 4868 ft | 266 kts | 45° |
| 2026-04-21 14:41 | 40.44447 | 14.63107 | 4578 ft | 264 kts | 43° |
| 2026-04-21 14:41 | 40.45715 | 14.64809 | 4273 ft | 257 kts | 43° |
| 2026-04-21 14:41 | 40.46943 | 14.66468 | 3997 ft | 250 kts | 44° |
| 2026-04-21 14:42 | 40.48136 | 14.68088 | 3733 ft | 243 kts | 44° |
| 2026-04-21 14:42 | 40.49284 | 14.69670 | 3471 ft | 236 kts | 47° |
| 2026-04-21 14:42 | 40.50310 | 14.71320 | 3220 ft | 230 kts | 51° |
| 2026-04-21 14:42 | 40.51262 | 14.72969 | 3046 ft | 221 kts | 51° |
| 2026-04-21 14:43 | 40.52195 | 14.74568 | 2953 ft | 222 kts | 51° |
| 2026-04-21 14:43 | 40.53142 | 14.76183 | 2681 ft | 221 kts | 51° |
| 2026-04-21 14:43 | 40.54067 | 14.77759 | 2395 ft | 213 kts | 51° |
| 2026-04-21 14:43 | 40.54946 | 14.79258 | 2092 ft | 200 kts | 51° |
| 2026-04-21 14:44 | 40.55768 | 14.80659 | 1838 ft | 187 kts | 51° |
| 2026-04-21 14:44 | 40.56535 | 14.81966 | 1607 ft | 174 kts | 52° |
| 2026-04-21 14:44 | 40.57236 | 14.83160 | 1441 ft | 155 kts | 52° |
| 2026-04-21 14:44 | 40.57869 | 14.84238 | 1159 ft | 143 kts | 52° |
| 2026-04-21 14:45 | 40.58467 | 14.85257 | 1031 ft | 144 kts | 52° |
| 2026-04-21 14:45 | 40.59089 | 14.86317 | 816 ft | 148 kts | 52° |
| 2026-04-21 14:45 | 40.59710 | 14.87416 | 593 ft | 147 kts | 53° |
| 2026-04-21 14:45 | 40.60324 | 14.88446 | 364 ft | 140 kts | 51° |
| 2026-04-21 14:46 | 40.60916 | 14.89443 | 182 ft | 140 kts | 52° |
| 2026-04-21 14:46 | 40.61512 | 14.90437 | 84 ft | 127 kts | 52° |
| 2026-04-21 14:46 | 40.61939 | 14.91160 | 85 ft | 74 kts | 52° |
| 2026-04-21 14:46 | 40.62102 | 14.91455 | 87 ft | 24 kts | 72° |
| 2026-04-21 14:47 | 40.62127 | 14.91635 | 85 ft | 15 kts | 78° |
| 2026-04-21 14:47 | 40.62135 | 14.91761 | 83 ft | 11 kts | 108° |
| 2026-04-21 14:47 | 40.62078 | 14.91831 | 85 ft | 11 kts | 142° |
| 2026-04-21 14:47 | 40.62040 | 14.91884 | 86 ft | 7 kts | 104° |
| 2026-04-21 14:48 | 40.62058 | 14.91937 | 83 ft | 7 kts | 52° |
| 2026-04-21 14:48 | 40.62080 | 14.91975 | 85 ft | 4 kts | 53° |
| 2026-04-21 14:48 | 40.62104 | 14.91993 | 84 ft | 4 kts | 2° |
| 2026-04-21 14:48 | 40.62132 | 14.91983 | 85 ft | 4 kts | 344° |
| 2026-04-21 14:49 | 40.62139 | 14.91981 | 84 ft | 0 kts | 343° |